Miami, FL

8:36 AM EDT on July 29, 2016 (GMT -0400)
JA Richmond West | | Change Station

Elev 7 ft 25.61 °N, 80.43 °W | Updated 12 seconds ago

Clear
Clear
91.0 °F
Feels Like 107 °F
N
3.5
Wind Variable Wind from East
Gusts 3.5 mph

Today
High -- | Low -- °F
--% Chance of Precip.
Yesterday
High -- | Low -- °F
Precip. -- in
Pressure 30.06 in
Visibility 10.0 miles
Clouds Clear
Heat Index 107 °F
Dew Point 78 °F
Humidity 67%
Rainfall 0.00 in
Snow Depth Not available.
6:47 AM 8:08 PM
Waning Crescent, 22% visible
METAR KTMB 291153Z 00000KT 10SM CLR 28/26 A3006 RMK AO2 SLP177 T02780261 10278 20250 53008
Pressure 30.06 in
Visibility 10.0 miles
Clouds Clear
Heat Index 107 °F
Dew Point 78 °F
Humidity 67%
Rainfall 0.00 in
Snow Depth Not available.
6:47 AM 8:08 PM
Waning Crescent, 22% visible
METAR KTMB 291153Z 00000KT 10SM CLR 28/26 A3006 RMK AO2 SLP177 T02780261 10278 20250 53008

10-Day Weather Forecast

Almanac

Astronomy

Jul. 29, 2016 Rise Set
Actual Time
Civil Twilight
Nautical Twilight
Astronomical Twilight
Moon
Length of Visible Light
Length of Day
Tomorrow will be .
, % of the Moon is Illuminated

Today's Extremes

State Highs State Lows

Community

WunderPhotos

Upload Photos

1,928,335 photos uploaded!

WunderBlog® & News

Nearby

Air Quality

  Air Quality AQ Index Pollutant
Not available.

Snow Depth

Station Depth Elevation

Earthquake Activity

City Distance Mag. Time & Date
Minimum magnitude displayed is 2.5.

Coastal Water Temperatures

Place Temperature

Stations

Nearby Weather Stations

Station Location Temp. Windchill Dew Point Humidity Wind Precip. Elev Updated Type
                   

Watches & Warnings

There are currently no watches in effect.